YV3077 SVBC-SVCS
Flight info
| Callsign | YV3077 |
|---|---|
| Flight time | 0h 59m |
| Altitude | 12000 |
| Route | ISULA2 ISULA DCT CBC DCT TUY |
| Aircraft | PA31/L-SDC/C |
Departure
| Time | 2026-04-16 01:53 |
|---|---|
| Airport | General José Antonio Anzoategui International Airport (SVBC) |
Arrival
| Time | 2026-04-16 02:53 |
|---|---|
| Airport | Caracas Óscar Machado Zuloaga International Airport (SVCS) |
| Time | Latitude | Longitude | Altitude | Speed | Heading |
|---|---|---|---|---|---|
| 2026-04-16 01:42 | 10.10768 | -64.68671 | 42 ft | 0 kts | 348° |
| 2026-04-16 01:50 | 10.10772 | -64.68673 | 42 ft | 3 kts | 321° |
| 2026-04-16 01:50 | 10.10740 | -64.68703 | 42 ft | 12 kts | 205° |
| 2026-04-16 01:51 | 10.10636 | -64.68690 | 42 ft | 20 kts | 162° |
| 2026-04-16 01:51 | 10.10525 | -64.68666 | 43 ft | 4 kts | 168° |
| 2026-04-16 01:51 | 10.10456 | -64.68652 | 43 ft | 6 kts | 167° |
| 2026-04-16 01:51 | 10.10384 | -64.68637 | 43 ft | 11 kts | 219° |
| 2026-04-16 01:52 | 10.10386 | -64.68655 | 43 ft | 0 kts | 321° |
| 2026-04-16 01:52 | 10.10551 | -64.68778 | 42 ft | 64 kts | 321° |
| 2026-04-16 01:52 | 10.11023 | -64.69147 | 82 ft | 96 kts | 327° |
| 2026-04-16 01:52 | 10.11588 | -64.69534 | 264 ft | 102 kts | 330° |
| 2026-04-16 01:53 | 10.12181 | -64.70006 | 454 ft | 113 kts | 326° |
| 2026-04-16 01:53 | 10.12865 | -64.70428 | 668 ft | 115 kts | 333° |
| 2026-04-16 01:53 | 10.13532 | -64.70870 | 875 ft | 113 kts | 331° |
| 2026-04-16 01:53 | 10.14176 | -64.71326 | 1079 ft | 113 kts | 328° |
| 2026-04-16 01:54 | 10.14823 | -64.71802 | 1265 ft | 115 kts | 328° |
| 2026-04-16 01:54 | 10.15422 | -64.72365 | 1456 ft | 121 kts | 303° |
| 2026-04-16 01:54 | 10.15516 | -64.73214 | 1638 ft | 129 kts | 256° |
| 2026-04-16 01:54 | 10.15095 | -64.74021 | 1828 ft | 130 kts | 239° |
| 2026-04-16 01:55 | 10.14605 | -64.74801 | 2023 ft | 131 kts | 238° |
| 2026-04-16 01:55 | 10.14104 | -64.75587 | 2223 ft | 131 kts | 238° |
| 2026-04-16 01:55 | 10.13611 | -64.76362 | 2419 ft | 131 kts | 237° |
| 2026-04-16 01:55 | 10.13116 | -64.77149 | 2598 ft | 133 kts | 237° |
| 2026-04-16 01:56 | 10.12619 | -64.77947 | 2780 ft | 134 kts | 237° |
| 2026-04-16 01:56 | 10.12125 | -64.78756 | 2977 ft | 135 kts | 237° |
| 2026-04-16 01:56 | 10.11638 | -64.79562 | 3176 ft | 135 kts | 237° |
| 2026-04-16 01:56 | 10.11147 | -64.80387 | 3379 ft | 135 kts | 238° |
| 2026-04-16 01:57 | 10.10662 | -64.81209 | 3576 ft | 136 kts | 237° |
| 2026-04-16 01:57 | 10.10171 | -64.82035 | 3760 ft | 137 kts | 237° |
| 2026-04-16 01:57 | 10.09683 | -64.82877 | 3945 ft | 138 kts | 243° |
| 2026-04-16 01:57 | 10.09574 | -64.83824 | 4117 ft | 138 kts | 278° |
| 2026-04-16 01:58 | 10.09676 | -64.84802 | 4308 ft | 139 kts | 274° |
| 2026-04-16 01:58 | 10.09724 | -64.85780 | 4501 ft | 140 kts | 271° |
| 2026-04-16 01:58 | 10.09736 | -64.86777 | 4699 ft | 141 kts | 269° |
| 2026-04-16 01:58 | 10.09729 | -64.87768 | 4910 ft | 141 kts | 268° |
| 2026-04-16 01:59 | 10.09711 | -64.88759 | 5113 ft | 142 kts | 267° |
| 2026-04-16 01:59 | 10.09687 | -64.89764 | 5318 ft | 143 kts | 267° |
| 2026-04-16 01:59 | 10.09659 | -64.90785 | 5479 ft | 147 kts | 266° |
| 2026-04-16 01:59 | 10.09633 | -64.91830 | 5651 ft | 149 kts | 266° |
| 2026-04-16 02:00 | 10.09604 | -64.92889 | 5834 ft | 150 kts | 266° |
| 2026-04-16 02:00 | 10.09576 | -64.93961 | 6022 ft | 151 kts | 266° |
| 2026-04-16 02:00 | 10.09549 | -64.95030 | 6204 ft | 152 kts | 266° |
| 2026-04-16 02:00 | 10.09518 | -64.96093 | 6396 ft | 152 kts | 266° |
| 2026-04-16 02:01 | 10.09488 | -64.97172 | 6585 ft | 152 kts | 266° |
| 2026-04-16 02:01 | 10.09459 | -64.98251 | 6771 ft | 152 kts | 266° |
| 2026-04-16 02:01 | 10.09431 | -64.99322 | 6957 ft | 152 kts | 266° |
| 2026-04-16 02:01 | 10.09402 | -65.00396 | 7143 ft | 153 kts | 266° |
| 2026-04-16 02:02 | 10.09372 | -65.01480 | 7329 ft | 153 kts | 266° |
| 2026-04-16 02:02 | 10.09343 | -65.02548 | 7517 ft | 153 kts | 266° |
| 2026-04-16 02:02 | 10.09314 | -65.03627 | 7704 ft | 153 kts | 266° |
| 2026-04-16 02:02 | 10.09286 | -65.04703 | 7888 ft | 153 kts | 266° |
| 2026-04-16 02:03 | 10.09257 | -65.05777 | 8069 ft | 153 kts | 266° |
| 2026-04-16 02:03 | 10.09228 | -65.06858 | 8253 ft | 153 kts | 267° |
| 2026-04-16 02:03 | 10.09200 | -65.07954 | 8440 ft | 154 kts | 266° |
| 2026-04-16 02:04 | 10.09140 | -65.10127 | 8815 ft | 154 kts | 267° |
| 2026-04-16 02:04 | 10.09112 | -65.11202 | 8992 ft | 154 kts | 267° |
| 2026-04-16 02:04 | 10.09083 | -65.12291 | 9175 ft | 154 kts | 267° |
| 2026-04-16 02:04 | 10.09054 | -65.13389 | 9352 ft | 154 kts | 266° |
| 2026-04-16 02:05 | 10.09023 | -65.14477 | 9538 ft | 154 kts | 267° |
| 2026-04-16 02:05 | 10.08995 | -65.15555 | 9732 ft | 154 kts | 267° |
| 2026-04-16 02:05 | 10.08967 | -65.16645 | 9916 ft | 153 kts | 266° |
| 2026-04-16 02:05 | 10.08936 | -65.17724 | 10103 ft | 153 kts | 266° |
| 2026-04-16 02:06 | 10.08905 | -65.18809 | 10296 ft | 152 kts | 266° |
| 2026-04-16 02:06 | 10.08874 | -65.19875 | 10482 ft | 152 kts | 266° |
| 2026-04-16 02:06 | 10.08845 | -65.20949 | 10666 ft | 151 kts | 266° |
| 2026-04-16 02:06 | 10.08814 | -65.22017 | 10852 ft | 150 kts | 266° |
| 2026-04-16 02:07 | 10.08787 | -65.23061 | 11026 ft | 150 kts | 266° |
| 2026-04-16 02:07 | 10.08757 | -65.24108 | 11225 ft | 149 kts | 266° |
| 2026-04-16 02:07 | 10.08727 | -65.25172 | 11416 ft | 148 kts | 266° |
| 2026-04-16 02:07 | 10.08696 | -65.26218 | 11614 ft | 148 kts | 266° |
| 2026-04-16 02:08 | 10.08667 | -65.27262 | 11802 ft | 148 kts | 266° |
| 2026-04-16 02:08 | 10.08638 | -65.28311 | 11996 ft | 147 kts | 266° |
| 2026-04-16 02:08 | 10.08610 | -65.29343 | 12183 ft | 146 kts | 266° |
| 2026-04-16 02:08 | 10.08584 | -65.30372 | 12365 ft | 147 kts | 266° |
| 2026-04-16 02:09 | 10.08549 | -65.31469 | 12287 ft | 164 kts | 266° |
| 2026-04-16 02:09 | 10.08511 | -65.32661 | 12209 ft | 176 kts | 266° |
| 2026-04-16 02:09 | 10.08473 | -65.33923 | 12128 ft | 179 kts | 266° |
| 2026-04-16 02:09 | 10.08440 | -65.35191 | 12064 ft | 180 kts | 266° |
| 2026-04-16 02:10 | 10.08406 | -65.36458 | 12003 ft | 181 kts | 266° |
| 2026-04-16 02:10 | 10.08369 | -65.37743 | 11947 ft | 182 kts | 266° |
| 2026-04-16 02:10 | 10.08336 | -65.39022 | 11890 ft | 182 kts | 266° |
| 2026-04-16 02:10 | 10.08303 | -65.40311 | 11839 ft | 181 kts | 266° |
| 2026-04-16 02:11 | 10.08268 | -65.41573 | 11856 ft | 178 kts | 266° |
| 2026-04-16 02:11 | 10.08170 | -65.42821 | 11852 ft | 175 kts | 255° |
| 2026-04-16 02:11 | 10.07978 | -65.44030 | 11851 ft | 173 kts | 264° |
| 2026-04-16 02:11 | 10.07887 | -65.45241 | 11851 ft | 171 kts | 264° |
| 2026-04-16 02:12 | 10.07798 | -65.46448 | 11858 ft | 170 kts | 263° |
| 2026-04-16 02:12 | 10.07714 | -65.47642 | 11860 ft | 170 kts | 263° |
| 2026-04-16 02:12 | 10.07654 | -65.48843 | 11858 ft | 171 kts | 269° |
| 2026-04-16 02:12 | 10.07720 | -65.50046 | 11869 ft | 171 kts | 271° |
| 2026-04-16 02:13 | 10.07795 | -65.51248 | 11858 ft | 171 kts | 271° |
| 2026-04-16 02:13 | 10.07874 | -65.52451 | 11857 ft | 170 kts | 271° |
| 2026-04-16 02:13 | 10.07956 | -65.53641 | 11865 ft | 170 kts | 271° |
| 2026-04-16 02:13 | 10.08045 | -65.54844 | 11877 ft | 170 kts | 271° |
| 2026-04-16 02:14 | 10.08129 | -65.56042 | 11875 ft | 170 kts | 272° |
| 2026-04-16 02:14 | 10.08212 | -65.57243 | 11875 ft | 171 kts | 272° |
| 2026-04-16 02:14 | 10.08297 | -65.58453 | 11865 ft | 171 kts | 272° |
| 2026-04-16 02:14 | 10.08385 | -65.59660 | 11868 ft | 171 kts | 271° |
| 2026-04-16 02:15 | 10.08473 | -65.60854 | 11871 ft | 170 kts | 271° |
| 2026-04-16 02:15 | 10.08559 | -65.62046 | 11871 ft | 170 kts | 272° |
| 2026-04-16 02:15 | 10.08645 | -65.63254 | 11874 ft | 170 kts | 272° |
| 2026-04-16 02:15 | 10.08733 | -65.64440 | 11878 ft | 169 kts | 271° |
| 2026-04-16 02:16 | 10.08819 | -65.65630 | 11882 ft | 169 kts | 271° |
| 2026-04-16 02:16 | 10.08904 | -65.66833 | 11879 ft | 170 kts | 272° |
| 2026-04-16 02:16 | 10.08992 | -65.68035 | 11883 ft | 170 kts | 271° |
| 2026-04-16 02:16 | 10.09078 | -65.69222 | 11890 ft | 170 kts | 271° |
| 2026-04-16 02:17 | 10.09165 | -65.70422 | 11886 ft | 171 kts | 271° |
| 2026-04-16 02:17 | 10.09252 | -65.71623 | 11886 ft | 171 kts | 272° |
| 2026-04-16 02:17 | 10.09337 | -65.72831 | 11887 ft | 171 kts | 272° |
| 2026-04-16 02:17 | 10.09424 | -65.74027 | 11885 ft | 171 kts | 271° |
| 2026-04-16 02:18 | 10.09511 | -65.75236 | 11886 ft | 171 kts | 271° |
| 2026-04-16 02:18 | 10.09597 | -65.76426 | 11882 ft | 170 kts | 272° |
| 2026-04-16 02:18 | 10.09685 | -65.77630 | 11883 ft | 170 kts | 271° |
| 2026-04-16 02:18 | 10.09770 | -65.78833 | 11885 ft | 170 kts | 272° |
| 2026-04-16 02:19 | 10.09857 | -65.80014 | 11889 ft | 170 kts | 271° |
| 2026-04-16 02:19 | 10.09943 | -65.81216 | 11884 ft | 170 kts | 272° |
| 2026-04-16 02:19 | 10.10028 | -65.82410 | 11888 ft | 171 kts | 271° |
| 2026-04-16 02:19 | 10.10113 | -65.83615 | 11877 ft | 171 kts | 271° |
| 2026-04-16 02:20 | 10.10200 | -65.84828 | 11881 ft | 171 kts | 271° |
| 2026-04-16 02:20 | 10.10289 | -65.86032 | 11877 ft | 171 kts | 271° |
| 2026-04-16 02:20 | 10.10375 | -65.87227 | 11870 ft | 171 kts | 271° |
| 2026-04-16 02:20 | 10.10461 | -65.88432 | 11880 ft | 170 kts | 271° |
| 2026-04-16 02:21 | 10.10545 | -65.89625 | 11868 ft | 170 kts | 271° |
| 2026-04-16 02:21 | 10.10630 | -65.90826 | 11868 ft | 169 kts | 272° |
| 2026-04-16 02:21 | 10.10717 | -65.92015 | 11868 ft | 169 kts | 271° |
| 2026-04-16 02:21 | 10.10804 | -65.93201 | 11877 ft | 169 kts | 271° |
| 2026-04-16 02:22 | 10.10888 | -65.94394 | 11874 ft | 170 kts | 271° |
| 2026-04-16 02:22 | 10.10971 | -65.95602 | 11875 ft | 170 kts | 271° |
| 2026-04-16 02:22 | 10.11056 | -65.96791 | 11869 ft | 171 kts | 272° |
| 2026-04-16 02:22 | 10.11145 | -65.98002 | 11863 ft | 170 kts | 272° |
| 2026-04-16 02:23 | 10.11230 | -65.99204 | 11854 ft | 170 kts | 271° |
| 2026-04-16 02:23 | 10.11315 | -66.00389 | 11869 ft | 168 kts | 271° |
| 2026-04-16 02:23 | 10.11400 | -66.01575 | 11879 ft | 169 kts | 271° |
| 2026-04-16 02:23 | 10.11483 | -66.02770 | 11874 ft | 170 kts | 271° |
| 2026-04-16 02:24 | 10.11571 | -66.03982 | 11877 ft | 171 kts | 271° |
| 2026-04-16 02:24 | 10.11655 | -66.05177 | 11874 ft | 171 kts | 271° |
| 2026-04-16 02:24 | 10.11740 | -66.06383 | 11868 ft | 170 kts | 271° |
| 2026-04-16 02:24 | 10.11827 | -66.07575 | 11872 ft | 170 kts | 271° |
| 2026-04-16 02:25 | 10.11912 | -66.08764 | 11887 ft | 169 kts | 271° |
| 2026-04-16 02:25 | 10.11995 | -66.09973 | 11887 ft | 170 kts | 271° |
| 2026-04-16 02:25 | 10.12080 | -66.11166 | 11883 ft | 171 kts | 271° |
| 2026-04-16 02:25 | 10.12167 | -66.12377 | 11875 ft | 170 kts | 271° |
| 2026-04-16 02:26 | 10.12253 | -66.13571 | 11883 ft | 169 kts | 271° |
| 2026-04-16 02:26 | 10.12338 | -66.14757 | 11892 ft | 169 kts | 271° |
| 2026-04-16 02:26 | 10.12421 | -66.15947 | 11894 ft | 169 kts | 271° |
| 2026-04-16 02:26 | 10.12505 | -66.17149 | 11900 ft | 169 kts | 271° |
| 2026-04-16 02:27 | 10.12592 | -66.18346 | 11903 ft | 170 kts | 272° |
| 2026-04-16 02:27 | 10.12672 | -66.19529 | 11899 ft | 170 kts | 271° |
| 2026-04-16 02:27 | 10.12759 | -66.20738 | 11897 ft | 170 kts | 271° |
| 2026-04-16 02:27 | 10.12843 | -66.21931 | 11903 ft | 170 kts | 272° |
| 2026-04-16 02:28 | 10.12927 | -66.23121 | 11901 ft | 170 kts | 271° |
| 2026-04-16 02:28 | 10.13012 | -66.24314 | 11905 ft | 169 kts | 271° |
| 2026-04-16 02:28 | 10.13097 | -66.25521 | 11907 ft | 170 kts | 271° |
| 2026-04-16 02:28 | 10.13181 | -66.26703 | 11907 ft | 169 kts | 271° |
| 2026-04-16 02:29 | 10.13263 | -66.27868 | 11917 ft | 170 kts | 271° |
| 2026-04-16 02:29 | 10.13347 | -66.29052 | 11915 ft | 170 kts | 271° |
| 2026-04-16 02:29 | 10.13432 | -66.30264 | 11912 ft | 171 kts | 271° |
| 2026-04-16 02:29 | 10.13515 | -66.31469 | 11910 ft | 171 kts | 271° |
| 2026-04-16 02:30 | 10.13600 | -66.32664 | 11904 ft | 170 kts | 272° |
| 2026-04-16 02:30 | 10.13683 | -66.33868 | 11908 ft | 170 kts | 271° |
| 2026-04-16 02:30 | 10.13769 | -66.35062 | 11911 ft | 169 kts | 271° |
| 2026-04-16 02:30 | 10.13855 | -66.36246 | 11913 ft | 169 kts | 272° |
| 2026-04-16 02:31 | 10.13940 | -66.37447 | 11919 ft | 169 kts | 271° |
| 2026-04-16 02:31 | 10.14024 | -66.38635 | 11921 ft | 169 kts | 271° |
| 2026-04-16 02:31 | 10.14109 | -66.39825 | 11922 ft | 170 kts | 272° |
| 2026-04-16 02:31 | 10.14191 | -66.41021 | 11921 ft | 170 kts | 272° |
| 2026-04-16 02:32 | 10.14275 | -66.42218 | 11915 ft | 170 kts | 271° |
| 2026-04-16 02:32 | 10.14360 | -66.43420 | 11922 ft | 170 kts | 272° |
| 2026-04-16 02:32 | 10.14443 | -66.44606 | 11925 ft | 170 kts | 272° |
| 2026-04-16 02:32 | 10.14525 | -66.45805 | 11927 ft | 170 kts | 271° |
| 2026-04-16 02:33 | 10.14609 | -66.46997 | 11932 ft | 170 kts | 272° |
| 2026-04-16 02:33 | 10.14693 | -66.48193 | 11929 ft | 170 kts | 271° |
| 2026-04-16 02:33 | 10.14776 | -66.49391 | 11931 ft | 170 kts | 271° |
| 2026-04-16 02:33 | 10.14861 | -66.50594 | 11927 ft | 170 kts | 272° |
| 2026-04-16 02:34 | 10.14945 | -66.51798 | 11929 ft | 170 kts | 271° |
| 2026-04-16 02:34 | 10.15028 | -66.52993 | 11926 ft | 170 kts | 271° |
| 2026-04-16 02:34 | 10.15113 | -66.54188 | 11921 ft | 170 kts | 271° |
| 2026-04-16 02:34 | 10.15194 | -66.55378 | 11922 ft | 169 kts | 271° |
| 2026-04-16 02:35 | 10.15278 | -66.56580 | 11922 ft | 169 kts | 271° |
| 2026-04-16 02:35 | 10.15361 | -66.57760 | 11925 ft | 169 kts | 271° |
| 2026-04-16 02:35 | 10.15443 | -66.58955 | 11917 ft | 168 kts | 271° |
| 2026-04-16 02:35 | 10.15525 | -66.60128 | 11928 ft | 168 kts | 272° |
| 2026-04-16 02:36 | 10.15610 | -66.61327 | 11921 ft | 169 kts | 272° |
| 2026-04-16 02:36 | 10.15689 | -66.62516 | 11917 ft | 169 kts | 271° |
| 2026-04-16 02:36 | 10.15772 | -66.63704 | 11916 ft | 169 kts | 272° |
| 2026-04-16 02:36 | 10.15854 | -66.64895 | 11912 ft | 169 kts | 272° |
| 2026-04-16 02:37 | 10.15937 | -66.66088 | 11917 ft | 169 kts | 271° |
| 2026-04-16 02:37 | 10.16020 | -66.67284 | 11906 ft | 169 kts | 271° |
| 2026-04-16 02:37 | 10.16102 | -66.68471 | 11916 ft | 169 kts | 271° |
| 2026-04-16 02:37 | 10.16187 | -66.69663 | 11912 ft | 170 kts | 272° |
| 2026-04-16 02:38 | 10.16270 | -66.70870 | 11906 ft | 169 kts | 272° |
| 2026-04-16 02:38 | 10.16352 | -66.72045 | 11908 ft | 169 kts | 271° |
| 2026-04-16 02:38 | 10.16434 | -66.73244 | 11909 ft | 169 kts | 271° |
| 2026-04-16 02:38 | 10.16516 | -66.74429 | 11913 ft | 169 kts | 271° |
| 2026-04-16 02:39 | 10.16598 | -66.75626 | 11913 ft | 170 kts | 271° |
| 2026-04-16 02:39 | 10.16680 | -66.76828 | 11911 ft | 170 kts | 271° |
| 2026-04-16 02:39 | 10.16762 | -66.78023 | 11905 ft | 170 kts | 271° |
| 2026-04-16 02:39 | 10.16846 | -66.79219 | 11914 ft | 169 kts | 271° |
| 2026-04-16 02:40 | 10.16928 | -66.80401 | 11921 ft | 165 kts | 271° |
| 2026-04-16 02:40 | 10.17004 | -66.81535 | 11829 ft | 159 kts | 271° |
| 2026-04-16 02:40 | 10.17079 | -66.82632 | 11699 ft | 155 kts | 271° |
| 2026-04-16 02:40 | 10.17153 | -66.83714 | 11513 ft | 149 kts | 271° |
| 2026-04-16 02:41 | 10.17224 | -66.84744 | 11316 ft | 143 kts | 271° |
| 2026-04-16 02:41 | 10.17295 | -66.85735 | 11109 ft | 139 kts | 271° |
| 2026-04-16 02:41 | 10.17360 | -66.86700 | 10891 ft | 136 kts | 271° |
| 2026-04-16 02:41 | 10.17425 | -66.87645 | 10702 ft | 131 kts | 271° |
| 2026-04-16 02:42 | 10.17490 | -66.88554 | 10522 ft | 130 kts | 271° |
| 2026-04-16 02:42 | 10.17552 | -66.89471 | 10340 ft | 132 kts | 271° |
| 2026-04-16 02:42 | 10.17613 | -66.90409 | 10101 ft | 136 kts | 271° |
| 2026-04-16 02:42 | 10.17676 | -66.91367 | 9875 ft | 138 kts | 272° |
| 2026-04-16 02:43 | 10.17742 | -66.92352 | 9656 ft | 139 kts | 272° |
| 2026-04-16 02:43 | 10.17812 | -66.93337 | 9452 ft | 141 kts | 272° |
| 2026-04-16 02:43 | 10.17880 | -66.94327 | 9228 ft | 142 kts | 273° |
| 2026-04-16 02:43 | 10.17948 | -66.95302 | 9087 ft | 133 kts | 273° |
| 2026-04-16 02:44 | 10.18013 | -66.96214 | 8930 ft | 129 kts | 272° |
| 2026-04-16 02:44 | 10.18280 | -66.97075 | 8675 ft | 132 kts | 309° |
| 2026-04-16 02:44 | 10.19058 | -66.97538 | 8421 ft | 128 kts | 347° |
| 2026-04-16 02:44 | 10.19899 | -66.97709 | 8170 ft | 119 kts | 351° |
| 2026-04-16 02:45 | 10.20705 | -66.97849 | 7946 ft | 113 kts | 352° |
| 2026-04-16 02:45 | 10.21470 | -66.97975 | 7740 ft | 111 kts | 351° |
| 2026-04-16 02:45 | 10.22255 | -66.98107 | 7458 ft | 118 kts | 352° |
| 2026-04-16 02:45 | 10.23094 | -66.98251 | 7029 ft | 127 kts | 352° |
| 2026-04-16 02:46 | 10.23966 | -66.98399 | 6608 ft | 127 kts | 352° |
| 2026-04-16 02:46 | 10.24805 | -66.98542 | 6185 ft | 119 kts | 352° |
| 2026-04-16 02:46 | 10.25604 | -66.98621 | 5736 ft | 113 kts | 11° |
| 2026-04-16 02:46 | 10.26197 | -66.98220 | 5441 ft | 98 kts | 59° |
| 2026-04-16 02:47 | 10.26411 | -66.97575 | 5350 ft | 96 kts | 75° |
| 2026-04-16 02:47 | 10.26568 | -66.96923 | 5263 ft | 95 kts | 76° |
| 2026-04-16 02:47 | 10.26712 | -66.96258 | 5167 ft | 95 kts | 78° |
| 2026-04-16 02:47 | 10.26836 | -66.95602 | 5057 ft | 95 kts | 78° |
| 2026-04-16 02:48 | 10.26956 | -66.94939 | 4931 ft | 97 kts | 78° |
| 2026-04-16 02:48 | 10.27076 | -66.94237 | 4807 ft | 103 kts | 80° |
| 2026-04-16 02:48 | 10.27199 | -66.93514 | 4699 ft | 105 kts | 79° |
| 2026-04-16 02:48 | 10.27317 | -66.92783 | 4583 ft | 105 kts | 80° |
| 2026-04-16 02:49 | 10.27435 | -66.92046 | 4416 ft | 105 kts | 80° |
| 2026-04-16 02:49 | 10.27552 | -66.91322 | 4250 ft | 104 kts | 80° |
| 2026-04-16 02:49 | 10.27668 | -66.90591 | 4067 ft | 106 kts | 81° |
| 2026-04-16 02:49 | 10.27779 | -66.89864 | 3860 ft | 101 kts | 78° |
| 2026-04-16 02:50 | 10.27890 | -66.89179 | 3653 ft | 97 kts | 81° |
| 2026-04-16 02:50 | 10.27992 | -66.88490 | 3424 ft | 102 kts | 79° |
| 2026-04-16 02:50 | 10.28134 | -66.87791 | 3250 ft | 100 kts | 76° |
| 2026-04-16 02:50 | 10.28270 | -66.87112 | 3123 ft | 97 kts | 82° |
| 2026-04-16 02:51 | 10.28377 | -66.86443 | 2988 ft | 95 kts | 78° |
| 2026-04-16 02:51 | 10.28548 | -66.85777 | 2816 ft | 99 kts | 75° |
| 2026-04-16 02:51 | 10.28709 | -66.85084 | 2640 ft | 100 kts | 78° |
| 2026-04-16 02:51 | 10.28775 | -66.84399 | 2493 ft | 92 kts | 86° |
| 2026-04-16 02:52 | 10.28768 | -66.83751 | 2374 ft | 92 kts | 87° |
| 2026-04-16 02:52 | 10.28773 | -66.83101 | 2225 ft | 93 kts | 92° |
| 2026-04-16 02:52 | 10.28741 | -66.82457 | 2084 ft | 87 kts | 91° |
| 2026-04-16 02:52 | 10.28708 | -66.81932 | 2079 ft | 58 kts | 92° |
| 2026-04-16 02:53 | 10.28714 | -66.81699 | 2082 ft | 12 kts | 14° |
| 2026-04-16 02:53 | 10.28750 | -66.81698 | 2084 ft | 0 kts | 9° |